createdAt,value
2023-02-24T00:00:33.821Z,83.54
2023-02-24T00:03:11.170Z,83.91
2023-02-24T00:05:44.572Z,83.56
2023-02-24T00:08:12.669Z,82.92
2023-02-24T00:10:40.664Z,82.88
2023-02-24T00:13:12.071Z,83.03
2023-02-24T00:15:40.295Z,84.02
2023-02-24T00:18:08.679Z,83.78
2023-02-24T00:20:37.427Z,83.95
2023-02-24T00:23:05.464Z,83.18
2023-02-24T00:25:33.487Z,83.04
2023-02-24T00:28:02.467Z,83.28
2023-02-24T00:30:33.101Z,82.55
2023-02-24T00:33:03.485Z,84.09
2023-02-24T00:35:32.271Z,83.83
2023-02-24T00:38:00.987Z,82.62
2023-02-24T00:40:30.850Z,83.05
2023-02-24T00:43:00.756Z,82.97
2023-02-24T00:45:30.916Z,83.00
2023-02-24T00:48:00.552Z,83.55
2023-02-24T00:50:28.484Z,83.36
2023-02-24T00:52:56.479Z,82.52
2023-02-24T00:55:27.826Z,82.40
2023-02-24T00:57:56.367Z,83.01
2023-02-24T01:00:24.525Z,82.94
2023-02-24T01:02:52.676Z,83.44
2023-02-24T01:05:22.044Z,83.45
2023-02-24T01:07:50.041Z,83.19
2023-02-24T01:10:18.523Z,83.06
2023-02-24T01:12:51.187Z,83.52
2023-02-24T01:15:22.312Z,83.20
2023-02-24T01:17:50.469Z,83.68
2023-02-24T01:20:19.702Z,83.30
2023-02-24T01:22:53.069Z,83.38
2023-02-24T01:25:21.711Z,83.18
2023-02-24T01:27:50.684Z,83.61
2023-02-24T01:30:18.959Z,84.57
2023-02-24T01:32:48.292Z,83.14
2023-02-24T01:35:17.738Z,83.83
2023-02-24T01:37:46.369Z,83.24
2023-02-24T01:40:21.820Z,84.12
2023-02-24T01:42:50.826Z,83.99
2023-02-24T01:45:25.193Z,83.31
2023-02-24T01:47:54.718Z,83.02
2023-02-24T01:50:26.174Z,83.84
2023-02-24T01:52:58.860Z,83.52
2023-02-24T01:55:32.180Z,83.95
2023-02-24T01:58:05.309Z,84.47
2023-02-24T02:00:47.072Z,83.90
2023-02-24T02:03:23.553Z,83.71
2023-02-24T02:05:51.922Z,84.75
2023-02-24T02:08:21.792Z,84.03
2023-02-24T02:10:57.998Z,84.24
2023-02-24T02:13:27.733Z,84.43
2023-02-24T02:16:07.816Z,84.51
2023-02-24T02:18:48.776Z,84.42
2023-02-24T02:21:59.633Z,84.18
2023-02-24T02:24:37.793Z,84.96
2023-02-24T02:27:35.502Z,85.00
2023-02-24T02:30:34.583Z,84.74
2023-02-24T02:34:05.461Z,85.76
2023-02-24T02:36:39.950Z,85.53
2023-02-24T02:39:15.845Z,85.53
2023-02-24T02:41:53.802Z,85.65
2023-02-24T02:44:26.743Z,86.11
2023-02-24T02:46:58.738Z,85.97
2023-02-24T02:49:33.180Z,85.57
2023-02-24T02:52:07.515Z,85.35
2023-02-24T02:54:45.500Z,85.43
2023-02-24T02:57:20.527Z,85.19
2023-02-24T02:59:54.650Z,84.52
2023-02-24T03:02:28.497Z,85.58
2023-02-24T03:05:04.949Z,85.53
2023-02-24T03:07:40.479Z,85.28
2023-02-24T03:10:17.751Z,85.65
2023-02-24T03:12:48.873Z,85.38
2023-02-24T03:15:21.073Z,85.22
2023-02-24T03:17:56.027Z,86.40
2023-02-24T03:20:32.739Z,85.67
2023-02-24T03:23:04.887Z,86.15
2023-02-24T03:25:44.607Z,86.01
2023-02-24T03:28:19.333Z,86.15
2023-02-24T03:30:53.446Z,85.62
2023-02-24T03:33:26.423Z,85.81
2023-02-24T03:36:01.706Z,86.28
2023-02-24T03:38:33.887Z,86.97
2023-02-24T03:41:02.682Z,86.63
2023-02-24T03:43:35.901Z,86.88
2023-02-24T03:46:06.696Z,87.09
2023-02-24T03:48:39.232Z,86.97
2023-02-24T03:51:09.832Z,86.83
2023-02-24T03:53:58.077Z,86.52
2023-02-24T03:56:40.460Z,87.32
2023-02-24T03:59:18.754Z,86.32
2023-02-24T04:01:56.160Z,86.72
2023-02-24T04:04:30.035Z,87.42
2023-02-24T04:07:16.240Z,87.52
2023-02-24T04:09:51.093Z,87.02
2023-02-24T04:12:24.675Z,87.00
2023-02-24T04:14:59.618Z,87.39
2023-02-24T04:17:32.655Z,87.10
2023-02-24T04:20:12.879Z,87.46
2023-02-24T04:22:50.158Z,87.52
2023-02-24T04:25:24.463Z,87.18
2023-02-24T04:27:55.608Z,86.65
2023-02-24T04:30:26.759Z,87.05
2023-02-24T04:32:56.558Z,86.73
2023-02-24T04:35:27.836Z,86.75
2023-02-24T04:37:58.876Z,87.69
2023-02-24T04:40:27.915Z,87.61
2023-02-24T04:42:56.315Z,88.56
2023-02-24T04:45:26.792Z,89.21
2023-02-24T04:48:01.062Z,89.17
2023-02-24T04:50:31.049Z,87.82
2023-02-24T04:53:02.639Z,87.19
2023-02-24T04:55:33.347Z,87.67
2023-02-24T04:58:02.019Z,87.89
2023-02-24T05:00:35.507Z,87.27
2023-02-24T05:03:05.737Z,87.63
2023-02-24T05:05:34.322Z,88.13
2023-02-24T05:08:06.498Z,88.11
2023-02-24T05:10:38.897Z,88.17
2023-02-24T05:13:09.174Z,87.83
2023-02-24T05:15:41.845Z,87.52
2023-02-24T05:18:14.111Z,87.57
2023-02-24T05:21:02.493Z,87.47
2023-02-24T05:23:34.494Z,87.67
2023-02-24T05:26:08.539Z,87.78
2023-02-24T05:28:37.071Z,87.91
2023-02-24T05:31:08.509Z,87.46
2023-02-24T05:33:37.788Z,86.71
2023-02-24T05:36:08.707Z,86.72
2023-02-24T05:38:38.995Z,86.51
2023-02-24T05:41:08.366Z,87.20
2023-02-24T05:43:39.301Z,87.12
2023-02-24T05:46:07.496Z,87.30
2023-02-24T05:48:36.033Z,87.43
2023-02-24T05:51:08.229Z,87.79
2023-02-24T05:53:41.313Z,87.38
2023-02-24T05:56:09.756Z,87.36
2023-02-24T05:58:39.495Z,87.34
2023-02-24T06:01:16.278Z,87.32
2023-02-24T06:03:48.025Z,87.22
2023-02-24T06:06:17.821Z,87.31
2023-02-24T06:08:50.691Z,87.17
2023-02-24T06:11:21.126Z,87.11
2023-02-24T06:13:49.392Z,87.05
2023-02-24T06:16:18.858Z,86.82
2023-02-24T06:18:49.393Z,86.31
2023-02-24T06:21:17.564Z,86.67
2023-02-24T06:23:47.544Z,86.66
2023-02-24T06:26:19.495Z,86.99
2023-02-24T06:28:48.166Z,87.40
2023-02-24T06:31:16.473Z,87.27
2023-02-24T06:33:44.445Z,87.71
2023-02-24T06:36:14.378Z,87.53
2023-02-24T06:38:42.679Z,87.19
2023-02-24T06:41:12.039Z,87.25
2023-02-24T06:43:40.784Z,87.94
2023-02-24T06:46:09.448Z,87.99
2023-02-24T06:48:38.015Z,89.21
2023-02-24T06:51:07.694Z,89.37
2023-02-24T06:53:36.050Z,88.80
2023-02-24T06:56:14.770Z,88.27
2023-02-24T06:58:45.329Z,88.02
2023-02-24T07:01:14.092Z,88.05
2023-02-24T07:03:47.954Z,88.00
2023-02-24T07:06:23.947Z,87.50
2023-02-24T07:08:53.456Z,88.19
2023-02-24T07:11:22.413Z,87.96
2023-02-24T07:13:54.479Z,87.68
2023-02-24T07:16:25.795Z,87.35
2023-02-24T07:18:56.659Z,88.23
2023-02-24T07:21:26.852Z,89.71
2023-02-24T07:23:58.772Z,90.50
2023-02-24T07:26:30.368Z,90.35
2023-02-24T07:29:04.277Z,89.55
2023-02-24T07:31:34.565Z,88.25
2023-02-24T07:34:02.697Z,87.27
2023-02-24T07:36:34.983Z,86.80
2023-02-24T07:39:03.896Z,86.38
2023-02-24T07:41:31.982Z,86.43
2023-02-24T07:44:03.316Z,85.84
2023-02-24T07:46:32.440Z,85.98
2023-02-24T07:49:01.580Z,85.69
2023-02-24T07:51:29.893Z,85.97
2023-02-24T07:54:00.295Z,85.48
2023-02-24T07:56:31.088Z,86.11
2023-02-24T07:59:02.161Z,87.13
2023-02-24T08:01:38.868Z,86.42
2023-02-24T08:04:09.140Z,86.05
2023-02-24T08:06:39.365Z,85.75
2023-02-24T08:09:18.286Z,84.20
2023-02-24T08:11:49.220Z,84.53
2023-02-24T08:14:23.566Z,83.85
2023-02-24T08:16:59.352Z,85.11
2023-02-24T08:19:32.868Z,85.04
2023-02-24T08:22:19.251Z,85.75
2023-02-24T08:24:50.223Z,85.17
2023-02-24T08:27:20.209Z,85.82
2023-02-24T08:30:01.687Z,84.39
2023-02-24T08:32:33.966Z,83.19
2023-02-24T08:35:04.852Z,83.35
2023-02-24T08:37:39.844Z,82.54
2023-02-24T08:40:29.741Z,81.68
2023-02-24T08:42:58.744Z,82.92
2023-02-24T08:45:33.473Z,82.16
2023-02-24T08:48:13.834Z,81.51
2023-02-24T08:50:45.639Z,81.67
2023-02-24T08:53:19.201Z,82.19
2023-02-24T08:55:51.794Z,82.10
2023-02-24T08:58:27.052Z,81.05
2023-02-24T09:00:59.371Z,81.36
2023-02-24T09:03:29.754Z,80.94
2023-02-24T09:06:04.590Z,81.18
2023-02-24T09:08:34.377Z,82.25
2023-02-24T09:11:08.045Z,82.65
2023-02-24T09:13:37.389Z,81.44
2023-02-24T09:16:16.359Z,81.49
2023-02-24T09:18:44.743Z,80.69
2023-02-24T09:21:31.348Z,80.54
2023-02-24T09:24:00.431Z,81.15
2023-02-24T09:26:32.686Z,81.01
2023-02-24T09:29:00.775Z,80.92
2023-02-24T09:31:40.843Z,81.18
2023-02-24T09:34:10.768Z,82.34
2023-02-24T09:36:45.021Z,82.78
2023-02-24T09:39:15.630Z,82.16
2023-02-24T09:41:56.838Z,81.87
2023-02-24T09:44:34.962Z,80.72
2023-02-24T09:47:14.060Z,81.21
2023-02-24T09:49:48.771Z,80.32
2023-02-24T09:52:19.508Z,80.45
2023-02-24T09:55:09.747Z,80.21
2023-02-24T09:58:02.904Z,80.60
2023-02-24T10:00:33.658Z,80.59
2023-02-24T10:03:19.782Z,80.16
2023-02-24T10:05:58.966Z,79.90
2023-02-24T10:08:34.521Z,80.57
2023-02-24T10:11:08.144Z,80.92
2023-02-24T10:13:40.283Z,79.48
2023-02-24T10:16:12.318Z,80.27
2023-02-24T10:18:46.956Z,78.32
2023-02-24T10:21:30.753Z,79.37
2023-02-24T10:24:14.446Z,79.04
2023-02-24T10:27:00.698Z,78.74
2023-02-24T10:29:50.881Z,77.59
2023-02-24T10:32:24.246Z,76.30
2023-02-24T10:34:54.497Z,76.45
2023-02-24T10:37:29.077Z,76.49
2023-02-24T10:39:59.600Z,76.41
2023-02-24T10:42:31.793Z,75.94
2023-02-24T10:45:18.112Z,75.89
2023-02-24T10:47:56.829Z,76.41
2023-02-24T10:50:32.236Z,75.35
2023-02-24T10:53:34.510Z,74.60
2023-02-24T10:56:23.907Z,74.36
2023-02-24T10:59:20.734Z,73.33
2023-02-24T11:02:01.169Z,73.64
2023-02-24T11:04:53.941Z,73.50
2023-02-24T11:07:33.770Z,72.85
2023-02-24T11:10:12.359Z,71.79
2023-02-24T11:13:09.272Z,73.91
2023-02-24T11:16:00.891Z,73.96
2023-02-24T11:18:31.173Z,74.49
2023-02-24T11:21:01.469Z,74.35
2023-02-24T11:23:34.985Z,73.89
2023-02-24T11:26:07.978Z,73.38
2023-02-24T11:28:48.984Z,73.47
2023-02-24T11:31:29.868Z,72.74
2023-02-24T11:34:06.176Z,72.81
2023-02-24T11:36:41.348Z,73.67
2023-02-24T11:39:47.463Z,72.69
2023-02-24T11:42:20.806Z,72.91
2023-02-24T11:44:56.620Z,71.84
2023-02-24T11:47:30.163Z,69.89
2023-02-24T11:50:14.760Z,70.35
2023-02-24T11:52:47.008Z,70.17
2023-02-24T11:55:27.418Z,70.06
2023-02-24T11:58:01.398Z,69.42
2023-02-24T12:00:33.855Z,68.64
2023-02-24T12:03:09.514Z,68.19
2023-02-24T12:05:42.099Z,68.01
2023-02-24T12:08:22.531Z,67.80
2023-02-24T12:10:59.658Z,66.76
2023-02-24T12:13:38.060Z,66.85
2023-02-24T12:16:12.035Z,67.12
2023-02-24T12:18:44.520Z,65.29
2023-02-24T12:21:17.786Z,63.67
2023-02-24T12:23:48.020Z,63.00
2023-02-24T12:26:25.150Z,62.75
2023-02-24T12:29:16.752Z,64.18
2023-02-24T12:31:57.228Z,64.09
2023-02-24T12:34:37.788Z,64.45
2023-02-24T12:37:36.027Z,63.53
2023-02-24T12:40:17.725Z,63.12
2023-02-24T12:42:58.686Z,63.08
2023-02-24T12:45:39.662Z,63.82
2023-02-24T12:48:16.323Z,63.26
2023-02-24T12:50:53.047Z,65.32
2023-02-24T12:53:24.682Z,63.26
2023-02-24T12:56:04.112Z,60.65
2023-02-24T12:58:37.434Z,62.85
2023-02-24T13:01:14.626Z,61.95
2023-02-24T13:04:22.900Z,65.96
2023-02-24T13:07:02.452Z,61.93
2023-02-24T13:09:45.966Z,61.91
2023-02-24T13:12:18.420Z,61.63
2023-02-24T13:14:48.759Z,61.95
2023-02-24T13:17:20.449Z,61.40
2023-02-24T13:19:52.214Z,60.97
2023-02-24T13:22:27.855Z,59.84
2023-02-24T13:25:13.830Z,57.84
2023-02-24T13:27:44.243Z,60.57
2023-02-24T13:30:29.747Z,58.88
2023-02-24T13:33:04.143Z,59.76
2023-02-24T13:35:35.641Z,59.42
2023-02-24T13:38:22.800Z,58.46
2023-02-24T13:40:50.980Z,58.56
2023-02-24T13:43:28.174Z,58.07
2023-02-24T13:46:00.443Z,57.69
2023-02-24T13:48:55.184Z,56.40
2023-02-24T13:51:49.761Z,55.47
2023-02-24T13:54:41.957Z,53.62
2023-02-24T13:57:31.027Z,54.54
2023-02-24T14:00:11.468Z,56.42
2023-02-24T14:02:45.188Z,54.80
2023-02-24T14:05:21.298Z,55.02
2023-02-24T14:07:53.175Z,55.04
2023-02-24T14:10:24.987Z,55.32
2023-02-24T14:13:04.150Z,54.38
2023-02-24T14:15:32.839Z,55.06
2023-02-24T14:18:04.672Z,55.29
2023-02-24T14:20:33.543Z,54.84
2023-02-24T14:23:02.705Z,55.28
2023-02-24T14:25:38.779Z,55.62
2023-02-24T14:28:07.289Z,56.31
2023-02-24T14:30:38.488Z,56.65
2023-02-24T14:33:21.387Z,58.19
2023-02-24T14:35:49.840Z,57.62
2023-02-24T14:38:30.288Z,57.80
2023-02-24T14:40:58.468Z,58.01
2023-02-24T14:43:26.675Z,58.61
2023-02-24T14:45:57.591Z,58.47
2023-02-24T14:48:28.651Z,58.66
2023-02-24T14:51:02.950Z,58.59
2023-02-24T14:53:34.334Z,58.68
2023-02-24T14:56:06.187Z,58.11
2023-02-24T14:58:39.702Z,58.44
2023-02-24T15:01:19.339Z,56.87
2023-02-24T15:03:50.767Z,58.11
2023-02-24T15:06:24.984Z,57.51
2023-02-24T15:08:59.335Z,58.65
2023-02-24T15:11:29.802Z,58.24
2023-02-24T15:14:00.722Z,59.13
2023-02-24T15:16:34.442Z,58.66
2023-02-24T15:19:04.333Z,58.50
2023-02-24T15:21:33.974Z,59.43
2023-02-24T15:24:03.655Z,58.85
2023-02-24T15:26:33.440Z,58.25
2023-02-24T15:29:03.095Z,59.13
2023-02-24T15:31:31.798Z,58.86
2023-02-24T15:34:02.144Z,59.62
2023-02-24T15:36:33.907Z,58.51
2023-02-24T15:39:04.912Z,58.63
2023-02-24T15:41:41.057Z,58.42
2023-02-24T15:44:26.020Z,58.21
2023-02-24T15:46:54.415Z,59.01
2023-02-24T15:49:22.460Z,59.81
2023-02-24T15:51:53.905Z,59.10
2023-02-24T15:54:29.226Z,59.33
2023-02-24T15:56:59.077Z,59.74
2023-02-24T15:59:27.326Z,60.02
2023-02-24T16:01:55.420Z,60.35
2023-02-24T16:04:24.146Z,60.93
2023-02-24T16:06:55.916Z,62.11
2023-02-24T16:09:32.128Z,61.81
2023-02-24T16:12:01.164Z,61.98
2023-02-24T16:14:29.176Z,61.28
2023-02-24T16:16:57.292Z,61.41
2023-02-24T16:19:25.667Z,61.80
2023-02-24T16:21:55.045Z,61.75
2023-02-24T16:24:23.025Z,61.37
2023-02-24T16:26:51.219Z,60.88
2023-02-24T16:29:19.287Z,61.14
2023-02-24T16:31:47.501Z,61.64
2023-02-24T16:34:16.907Z,61.57
2023-02-24T16:36:45.311Z,61.78
2023-02-24T16:39:15.102Z,62.16
2023-02-24T16:41:43.092Z,62.86
2023-02-24T16:44:11.470Z,62.84
2023-02-24T16:46:42.261Z,63.59
2023-02-24T16:49:14.829Z,64.00
2023-02-24T16:51:42.842Z,64.51
2023-02-24T16:54:10.946Z,64.88
2023-02-24T16:56:40.340Z,65.09
2023-02-24T16:59:08.307Z,65.60
2023-02-24T17:01:36.360Z,66.15
2023-02-24T17:04:09.750Z,66.03
2023-02-24T17:06:37.775Z,65.72
2023-02-24T17:09:05.873Z,65.80
2023-02-24T17:11:34.000Z,66.52
2023-02-24T17:14:03.343Z,66.66
2023-02-24T17:16:31.545Z,66.72
2023-02-24T17:19:00.226Z,66.94
2023-02-24T17:21:29.473Z,67.12
2023-02-24T17:23:59.152Z,67.29
2023-02-24T17:26:27.732Z,67.55
2023-02-24T17:28:55.815Z,67.82
2023-02-24T17:31:28.416Z,67.76
2023-02-24T17:33:56.462Z,67.74
2023-02-24T17:36:24.549Z,67.63
2023-02-24T17:38:53.076Z,67.51
2023-02-24T17:41:21.066Z,68.10
2023-02-24T17:43:51.732Z,67.94
2023-02-24T17:46:20.212Z,67.95
2023-02-24T17:48:49.687Z,68.13
2023-02-24T17:51:19.766Z,67.99
2023-02-24T17:53:47.933Z,68.06
2023-02-24T17:56:15.936Z,68.56
2023-02-24T17:58:43.919Z,68.68
2023-02-24T18:01:12.664Z,69.06
2023-02-24T18:03:40.819Z,69.16
2023-02-24T18:06:12.214Z,69.48
2023-02-24T18:08:41.292Z,69.86
2023-02-24T18:11:12.417Z,69.95
2023-02-24T18:13:40.405Z,70.11
2023-02-24T18:16:11.102Z,70.55
2023-02-24T18:18:39.588Z,70.45
2023-02-24T18:21:08.612Z,70.75
2023-02-24T18:23:40.454Z,71.38
2023-02-24T18:26:10.285Z,71.20
2023-02-24T18:28:38.665Z,71.08
2023-02-24T18:31:12.355Z,71.29
2023-02-24T18:33:40.599Z,71.24
2023-02-24T18:36:10.226Z,72.32
2023-02-24T18:38:39.696Z,73.74
2023-02-24T18:41:09.590Z,74.91
2023-02-24T18:43:38.682Z,75.66
2023-02-24T18:46:09.057Z,75.38
2023-02-24T18:48:37.637Z,75.54
2023-02-24T18:51:05.885Z,76.67
2023-02-24T18:53:36.872Z,76.75
2023-02-24T18:56:08.858Z,76.44
2023-02-24T18:58:38.634Z,76.11
2023-02-24T19:01:12.608Z,78.25
2023-02-24T19:03:41.057Z,79.40
2023-02-24T19:06:09.091Z,80.46
2023-02-24T19:08:37.049Z,80.02
2023-02-24T19:11:10.659Z,80.80
2023-02-24T19:13:38.764Z,80.14
2023-02-24T19:16:07.965Z,80.66
2023-02-24T19:18:36.463Z,80.25
2023-02-24T19:21:06.580Z,81.31
2023-02-24T19:23:34.868Z,80.85
2023-02-24T19:26:03.074Z,81.17
2023-02-24T19:28:32.445Z,81.02
2023-02-24T19:31:00.534Z,79.95
2023-02-24T19:33:28.605Z,79.37
2023-02-24T19:35:59.883Z,79.72
2023-02-24T19:38:28.488Z,79.94
2023-02-24T19:40:59.001Z,80.38
2023-02-24T19:43:27.430Z,80.05
2023-02-24T19:45:56.820Z,80.09
2023-02-24T19:48:24.856Z,79.54
2023-02-24T19:50:52.848Z,79.59
2023-02-24T19:53:20.771Z,79.39
2023-02-24T19:55:51.669Z,78.91
2023-02-24T19:58:19.738Z,78.63
2023-02-24T20:00:48.458Z,78.82
2023-02-24T20:03:17.961Z,79.20
2023-02-24T20:05:45.925Z,78.92
2023-02-24T20:08:13.881Z,80.68
2023-02-24T20:10:41.826Z,79.54
2023-02-24T20:13:09.825Z,80.36
2023-02-24T20:15:37.878Z,80.06
2023-02-24T20:18:08.824Z,80.07
2023-02-24T20:20:38.442Z,79.79
2023-02-24T20:23:06.428Z,79.29
2023-02-24T20:25:34.411Z,79.16
2023-02-24T20:28:03.011Z,79.44
2023-02-24T20:30:31.042Z,80.00
2023-02-24T20:32:59.632Z,80.16
2023-02-24T20:35:28.554Z,80.35
2023-02-24T20:37:57.879Z,80.22
2023-02-24T20:40:25.855Z,81.17
2023-02-24T20:42:53.847Z,81.42
2023-02-24T20:45:21.953Z,81.32
2023-02-24T20:47:51.064Z,82.52
2023-02-24T20:50:19.265Z,85.40
2023-02-24T20:52:47.289Z,87.40
2023-02-24T20:55:16.817Z,88.64
2023-02-24T20:57:44.797Z,90.29
2023-02-24T21:00:15.506Z,91.66
2023-02-24T21:02:44.105Z,94.07
2023-02-24T21:05:20.427Z,95.44
2023-02-24T21:07:50.737Z,95.14
2023-02-24T21:10:22.504Z,95.26
2023-02-24T21:12:52.540Z,93.66
2023-02-24T21:15:21.823Z,93.05
2023-02-24T21:17:49.784Z,93.92
2023-02-24T21:20:17.781Z,93.31
2023-02-24T21:22:45.793Z,94.45
2023-02-24T21:25:13.779Z,94.17
2023-02-24T21:27:43.136Z,94.91
2023-02-24T21:30:12.334Z,94.98
2023-02-24T21:32:40.318Z,95.91
2023-02-24T21:35:09.396Z,97.52
2023-02-24T21:37:37.356Z,96.84
2023-02-24T21:40:11.107Z,96.58
2023-02-24T21:42:41.962Z,95.67
2023-02-24T21:45:12.216Z,94.66
2023-02-24T21:47:41.005Z,94.07
2023-02-24T21:50:12.065Z,92.62
2023-02-24T21:52:40.529Z,92.47
2023-02-24T21:55:09.689Z,92.46
2023-02-24T21:57:41.302Z,92.81
2023-02-24T22:00:18.305Z,92.42
2023-02-24T22:02:47.503Z,93.28
2023-02-24T22:05:16.696Z,93.33
2023-02-24T22:07:45.038Z,93.90
2023-02-24T22:10:14.417Z,93.29
2023-02-24T22:12:42.386Z,93.54
2023-02-24T22:15:12.662Z,93.96
2023-02-24T22:17:41.809Z,93.49
2023-02-24T22:20:13.692Z,93.17
2023-02-24T22:22:43.426Z,93.53
2023-02-24T22:25:12.006Z,93.00
2023-02-24T22:27:40.068Z,93.28
2023-02-24T22:30:09.572Z,92.85
2023-02-24T22:32:38.972Z,93.99
2023-02-24T22:35:07.877Z,94.40
2023-02-24T22:37:35.911Z,95.69
2023-02-24T22:40:03.947Z,95.95
2023-02-24T22:42:31.954Z,97.22
2023-02-24T22:45:00.270Z,95.30
2023-02-24T22:47:28.266Z,95.57
2023-02-24T22:49:57.645Z,95.06
2023-02-24T22:52:26.803Z,96.72
2023-02-24T22:54:55.562Z,97.41
2023-02-24T22:57:23.523Z,97.37
2023-02-24T22:59:51.466Z,100.00
2023-02-24T23:02:19.458Z,100.00
2023-02-24T23:04:47.492Z,100.00
2023-02-24T23:07:16.862Z,100.00
2023-02-24T23:09:52.937Z,100.00
2023-02-24T23:12:22.301Z,99.00
2023-02-24T23:14:50.332Z,96.71
2023-02-24T23:17:18.355Z,95.43
2023-02-24T23:19:46.320Z,94.78
2023-02-24T23:22:14.783Z,94.44
2023-02-24T23:24:44.736Z,94.19
2023-02-24T23:27:12.736Z,93.48
2023-02-24T23:29:40.977Z,92.86
2023-02-24T23:32:09.051Z,92.18
2023-02-24T23:34:37.099Z,91.94
2023-02-24T23:37:05.804Z,91.84
2023-02-24T23:39:33.942Z,90.85
2023-02-24T23:42:03.350Z,90.54
2023-02-24T23:44:31.374Z,90.64
2023-02-24T23:47:01.234Z,89.75
2023-02-24T23:49:42.402Z,90.61
2023-02-24T23:52:14.293Z,91.48
2023-02-24T23:54:42.252Z,93.21
2023-02-24T23:57:11.609Z,95.16
2023-02-24T23:59:39.593Z,96.95
